Main page
METAR-TAF:

METAR-TAF

Airports :

Luxembourg Findel Airport

Luxembourg, Luxembourg

latitude: 49-37N, longitude: 006-13E, elevation: 376 m

Current weather observation

The report was made 32 minutes ago, at 00:20 UTC
Wind 8 kt from the North
Temperature 9°C
Humidity 87%
Pressure 1027 hPa
Visibility 10 km or more

METAR: ELLX 230020Z AUTO 36008KT 9999 NCD 09/07 Q1027 NOSIG

Time: 02:52 (00:52 UTC)

Forecast

The report was made 1 hour and 52 minutes ago, at 23:00 UTC
Forecast valid from 23 at 00 UTC to 24 at 06 UTC
Wind 9 kt from the North/Northwest
Visibility 10 km or more
no clouds below 1500 m and no cumulonimbus
Temporary
from 23 at 08 UTC to 23 at 17 UTC
Scattered clouds at a height of 2500 ft
Scattered clouds at a height of 5000 ft

TAF: ELLX 222300Z 2300/2406 34009KT CAVOK TEMPO 2308/2317 SCT025 SCT050

Weather observations and forecasts of more than 4000 airports (METAR and TAF reports).

The available stations are represented by yellow and red dots on the map.

Hover mouse over dot to see the name of the station.

Then click to see weather observations and forecasts.

To change the map : click on the green buttons with a black cross to zoom in, on the green button with a dash to zoom out, or on the green arrows for adjacent maps.


METAR-TAF: